Terminal Aerodrome Forecast
Issued by NWS Goodland, KS

Home | Current Version | Previous Version | Text Only | Print | Product List | Glossary On
Versions: 1 2 3 4 5 6 7 8 9 10 11 12 13 14 15 16 17 18
000
FTUS43 KGLD 192329
TAFGLD
TAF
KGLD 192329Z 2000/2024 VRB05KT P6SM FEW300
     FM201700 15010KT P6SM SKC
      TEMPO 2018/2022 15010G16KT=

USA.gov is the U.S. government's official web portal to all federal, state and local government web resources and services.